sensor_id;sensor_type;location;lat;lon;timestamp;temperature;humidity
1568;DHT22;777;47.156;8.326;2023-04-06T00:01:06;0.50;99.90
1568;DHT22;777;47.156;8.326;2023-04-06T00:03:34;0.70;99.90
1568;DHT22;777;47.156;8.326;2023-04-06T00:06:01;0.60;99.90
1568;DHT22;777;47.156;8.326;2023-04-06T00:08:28;0.60;99.90
1568;DHT22;777;47.156;8.326;2023-04-06T00:10:56;0.60;99.90
1568;DHT22;777;47.156;8.326;2023-04-06T00:13:24;0.60;99.90
1568;DHT22;777;47.156;8.326;2023-04-06T00:15:51;0.70;99.90
1568;DHT22;777;47.156;8.326;2023-04-06T00:18:18;0.70;99.90
1568;DHT22;777;47.156;8.326;2023-04-06T00:20:46;0.60;99.90
1568;DHT22;777;47.156;8.326;2023-04-06T00:23:13;0.70;99.90
1568;DHT22;777;47.156;8.326;2023-04-06T00:25:41;0.70;99.90
1568;DHT22;777;47.156;8.326;2023-04-06T00:28:09;0.60;99.90
1568;DHT22;777;47.156;8.326;2023-04-06T00:30:37;0.30;99.90
1568;DHT22;777;47.156;8.326;2023-04-06T00:33:04;0.40;99.90
1568;DHT22;777;47.156;8.326;2023-04-06T00:35:31;0.50;99.90
1568;DHT22;777;47.156;8.326;2023-04-06T00:37:58;0.50;99.90
1568;DHT22;777;47.156;8.326;2023-04-06T00:40:26;0.50;99.90
1568;DHT22;777;47.156;8.326;2023-04-06T00:42:54;0.60;99.90
1568;DHT22;777;47.156;8.326;2023-04-06T00:45:22;0.60;99.90
1568;DHT22;777;47.156;8.326;2023-04-06T00:47:49;0.60;99.90
1568;DHT22;777;47.156;8.326;2023-04-06T00:50:17;0.70;99.90
1568;DHT22;777;47.156;8.326;2023-04-06T00:52:44;0.70;99.90
1568;DHT22;777;47.156;8.326;2023-04-06T00:55:11;0.80;99.90
1568;DHT22;777;47.156;8.326;2023-04-06T00:57:41;0.80;99.90
1568;DHT22;777;47.156;8.326;2023-04-06T01:00:09;0.60;99.90
1568;DHT22;777;47.156;8.326;2023-04-06T01:02:39;0.60;99.90
1568;DHT22;777;47.156;8.326;2023-04-06T01:05:07;0.70;99.90
1568;DHT22;777;47.156;8.326;2023-04-06T01:07:45;0.80;99.90
1568;DHT22;777;47.156;8.326;2023-04-06T01:10:23;0.70;99.90
1568;DHT22;777;47.156;8.326;2023-04-06T01:12:54;0.60;99.90
1568;DHT22;777;47.156;8.326;2023-04-06T01:15:40;0.50;99.90
1568;DHT22;777;47.156;8.326;2023-04-06T01:18:11;0.70;99.90
1568;DHT22;777;47.156;8.326;2023-04-06T01:20:44;0.60;99.90
1568;DHT22;777;47.156;8.326;2023-04-06T01:23:13;0.60;99.90
1568;DHT22;777;47.156;8.326;2023-04-06T01:25:45;0.70;99.90
1568;DHT22;777;47.156;8.326;2023-04-06T01:28:12;0.70;99.90
1568;DHT22;777;47.156;8.326;2023-04-06T01:31:14;0.60;99.90
1568;DHT22;777;47.156;8.326;2023-04-06T01:33:46;0.70;99.90
1568;DHT22;777;47.156;8.326;2023-04-06T01:36:16;0.80;99.90
1568;DHT22;777;47.156;8.326;2023-04-06T01:38:48;0.80;99.90
1568;DHT22;777;47.156;8.326;2023-04-06T01:41:19;0.90;99.90
1568;DHT22;777;47.156;8.326;2023-04-06T01:43:50;0.90;99.90
1568;DHT22;777;47.156;8.326;2023-04-06T01:46:21;0.80;99.90
1568;DHT22;777;47.156;8.326;2023-04-06T01:48:49;0.90;99.90
1568;DHT22;777;47.156;8.326;2023-04-06T01:51:22;0.90;99.90
1568;DHT22;777;47.156;8.326;2023-04-06T01:53:58;0.80;99.90
1568;DHT22;777;47.156;8.326;2023-04-06T01:56:51;0.80;99.90
1568;DHT22;777;47.156;8.326;2023-04-06T01:59:39;0.60;99.90
1568;DHT22;777;47.156;8.326;2023-04-06T02:02:12;0.80;99.90
1568;DHT22;777;47.156;8.326;2023-04-06T02:04:45;0.80;99.90
1568;DHT22;777;47.156;8.326;2023-04-06T02:07:14;0.70;99.90
1568;DHT22;777;47.156;8.326;2023-04-06T02:09:43;0.80;99.90
1568;DHT22;777;47.156;8.326;2023-04-06T02:12:18;0.80;99.90
1568;DHT22;777;47.156;8.326;2023-04-06T02:14:46;0.80;99.90
1568;DHT22;777;47.156;8.326;2023-04-06T02:17:13;0.80;99.90
1568;DHT22;777;47.156;8.326;2023-04-06T02:19:40;0.60;99.90
1568;DHT22;777;47.156;8.326;2023-04-06T02:22:07;0.60;99.90
1568;DHT22;777;47.156;8.326;2023-04-06T02:24:34;0.60;99.90
1568;DHT22;777;47.156;8.326;2023-04-06T02:27:04;0.60;99.90
1568;DHT22;777;47.156;8.326;2023-04-06T02:29:31;0.60;99.90
1568;DHT22;777;47.156;8.326;2023-04-06T02:31:59;0.50;99.90
1568;DHT22;777;47.156;8.326;2023-04-06T02:34:30;0.60;99.90
1568;DHT22;777;47.156;8.326;2023-04-06T02:36:57;0.60;99.90
1568;DHT22;777;47.156;8.326;2023-04-06T02:39:24;0.60;99.90
1568;DHT22;777;47.156;8.326;2023-04-06T02:41:51;0.70;99.90
1568;DHT22;777;47.156;8.326;2023-04-06T02:44:23;0.70;99.90
1568;DHT22;777;47.156;8.326;2023-04-06T02:46:50;0.70;99.90
1568;DHT22;777;47.156;8.326;2023-04-06T02:49:18;0.80;99.90
1568;DHT22;777;47.156;8.326;2023-04-06T02:51:45;0.80;99.90
1568;DHT22;777;47.156;8.326;2023-04-06T02:54:23;0.70;99.90
1568;DHT22;777;47.156;8.326;2023-04-06T02:56:50;0.60;99.90
1568;DHT22;777;47.156;8.326;2023-04-06T02:59:18;0.70;99.90
1568;DHT22;777;47.156;8.326;2023-04-06T03:01:59;0.50;99.90
1568;DHT22;777;47.156;8.326;2023-04-06T03:04:26;0.60;99.90
1568;DHT22;777;47.156;8.326;2023-04-06T03:06:55;0.60;99.90
1568;DHT22;777;47.156;8.326;2023-04-06T03:09:32;0.50;99.90
1568;DHT22;777;47.156;8.326;2023-04-06T03:12:00;0.50;99.90
1568;DHT22;777;47.156;8.326;2023-04-06T03:14:29;0.50;99.90
1568;DHT22;777;47.156;8.326;2023-04-06T03:16:56;0.30;99.90
1568;DHT22;777;47.156;8.326;2023-04-06T03:19:26;0.30;99.90
1568;DHT22;777;47.156;8.326;2023-04-06T03:21:56;0.30;99.90
1568;DHT22;777;47.156;8.326;2023-04-06T03:24:24;0.20;99.90
1568;DHT22;777;47.156;8.326;2023-04-06T03:26:51;0.20;99.90
1568;DHT22;777;47.156;8.326;2023-04-06T03:29:19;0.10;99.90
1568;DHT22;777;47.156;8.326;2023-04-06T03:31:46;0.00;99.90
1568;DHT22;777;47.156;8.326;2023-04-06T03:34:26;0.00;99.90
1568;DHT22;777;47.156;8.326;2023-04-06T03:36:54;0.00;99.90
1568;DHT22;777;47.156;8.326;2023-04-06T03:39:21;-0.20;99.90
1568;DHT22;777;47.156;8.326;2023-04-06T03:41:48;-0.10;99.90
1568;DHT22;777;47.156;8.326;2023-04-06T03:44:36;0.00;99.90
1568;DHT22;777;47.156;8.326;2023-04-06T03:47:03;0.00;99.90
1568;DHT22;777;47.156;8.326;2023-04-06T03:49:32;-0.10;99.90
1568;DHT22;777;47.156;8.326;2023-04-06T03:52:01;-0.10;99.90
1568;DHT22;777;47.156;8.326;2023-04-06T03:54:28;0.00;99.90
1568;DHT22;777;47.156;8.326;2023-04-06T03:56:56;-0.10;99.90
1568;DHT22;777;47.156;8.326;2023-04-06T03:59:26;-0.20;99.90
1568;DHT22;777;47.156;8.326;2023-04-06T04:01:53;-0.20;99.90
1568;DHT22;777;47.156;8.326;2023-04-06T04:04:20;-0.30;99.90
1568;DHT22;777;47.156;8.326;2023-04-06T04:06:48;-0.30;99.90
1568;DHT22;777;47.156;8.326;2023-04-06T04:09:16;-0.30;99.90
1568;DHT22;777;47.156;8.326;2023-04-06T04:11:43;-0.30;99.90
1568;DHT22;777;47.156;8.326;2023-04-06T04:14:10;-0.30;99.90
1568;DHT22;777;47.156;8.326;2023-04-06T04:16:37;-0.30;99.90
1568;DHT22;777;47.156;8.326;2023-04-06T04:19:05;-0.40;99.90
1568;DHT22;777;47.156;8.326;2023-04-06T04:21:32;-0.40;99.90
1568;DHT22;777;47.156;8.326;2023-04-06T04:24:07;-0.50;99.90
1568;DHT22;777;47.156;8.326;2023-04-06T04:26:35;-0.60;99.90
1568;DHT22;777;47.156;8.326;2023-04-06T04:29:03;-0.50;99.90
1568;DHT22;777;47.156;8.326;2023-04-06T04:31:31;-0.50;99.90
1568;DHT22;777;47.156;8.326;2023-04-06T04:34:01;-0.60;99.90
1568;DHT22;777;47.156;8.326;2023-04-06T04:36:32;-0.50;99.90
1568;DHT22;777;47.156;8.326;2023-04-06T04:39:03;-0.50;99.90
1568;DHT22;777;47.156;8.326;2023-04-06T04:41:37;-0.60;99.90
1568;DHT22;777;47.156;8.326;2023-04-06T04:44:07;-0.60;99.90
1568;DHT22;777;47.156;8.326;2023-04-06T04:46:35;-0.60;99.90
1568;DHT22;777;47.156;8.326;2023-04-06T04:49:02;-0.60;99.90
1568;DHT22;777;47.156;8.326;2023-04-06T04:51:31;-0.70;99.90
1568;DHT22;777;47.156;8.326;2023-04-06T04:54:08;-0.70;99.90
1568;DHT22;777;47.156;8.326;2023-04-06T04:56:37;-0.70;99.90
1568;DHT22;777;47.156;8.326;2023-04-06T04:59:18;-0.70;99.90
1568;DHT22;777;47.156;8.326;2023-04-06T05:01:52;-0.70;99.90
1568;DHT22;777;47.156;8.326;2023-04-06T05:04:19;-0.70;99.90
1568;DHT22;777;47.156;8.326;2023-04-06T05:06:47;-0.60;99.90
1568;DHT22;777;47.156;8.326;2023-04-06T05:09:14;-0.60;99.90
1568;DHT22;777;47.156;8.326;2023-04-06T05:11:44;-0.60;99.90
1568;DHT22;777;47.156;8.326;2023-04-06T05:14:11;-0.50;99.90
1568;DHT22;777;47.156;8.326;2023-04-06T05:16:38;-0.50;99.90
1568;DHT22;777;47.156;8.326;2023-04-06T05:19:06;-0.30;99.90
1568;DHT22;777;47.156;8.326;2023-04-06T05:21:39;-0.30;99.90
1568;DHT22;777;47.156;8.326;2023-04-06T05:24:07;-0.20;99.90
1568;DHT22;777;47.156;8.326;2023-04-06T05:26:35;-0.20;99.90
1568;DHT22;777;47.156;8.326;2023-04-06T05:29:10;-0.20;99.90
1568;DHT22;777;47.156;8.326;2023-04-06T05:31:38;-0.60;99.90
1568;DHT22;777;47.156;8.326;2023-04-06T05:34:05;-0.60;99.90
1568;DHT22;777;47.156;8.326;2023-04-06T05:36:36;-0.60;99.90
1568;DHT22;777;47.156;8.326;2023-04-06T05:39:09;-0.40;99.90
1568;DHT22;777;47.156;8.326;2023-04-06T05:41:42;-0.20;99.90
1568;DHT22;777;47.156;8.326;2023-04-06T05:44:13;0.00;99.90
1568;DHT22;777;47.156;8.326;2023-04-06T05:46:43;0.20;99.90
1568;DHT22;777;47.156;8.326;2023-04-06T05:49:14;0.60;99.90
1568;DHT22;777;47.156;8.326;2023-04-06T05:51:41;1.20;99.90
1568;DHT22;777;47.156;8.326;2023-04-06T05:54:08;1.40;99.90
1568;DHT22;777;47.156;8.326;2023-04-06T05:56:35;1.60;99.90
1568;DHT22;777;47.156;8.326;2023-04-06T05:59:03;1.80;99.90
1568;DHT22;777;47.156;8.326;2023-04-06T06:01:32;1.80;99.90
1568;DHT22;777;47.156;8.326;2023-04-06T06:04:00;2.10;99.90
1568;DHT22;777;47.156;8.326;2023-04-06T06:06:29;2.20;99.90
1568;DHT22;777;47.156;8.326;2023-04-06T06:09:09;2.20;99.90
1568;DHT22;777;47.156;8.326;2023-04-06T06:11:42;2.10;99.90
1568;DHT22;777;47.156;8.326;2023-04-06T06:14:12;2.10;99.90
1568;DHT22;777;47.156;8.326;2023-04-06T06:16:42;2.20;99.90
1568;DHT22;777;47.156;8.326;2023-04-06T06:19:12;2.50;99.90
1568;DHT22;777;47.156;8.326;2023-04-06T06:21:39;2.80;99.90
1568;DHT22;777;47.156;8.326;2023-04-06T06:24:07;3.10;99.90
1568;DHT22;777;47.156;8.326;2023-04-06T06:26:34;3.30;99.90
1568;DHT22;777;47.156;8.326;2023-04-06T06:29:03;3.50;99.90
1568;DHT22;777;47.156;8.326;2023-04-06T06:31:33;4.00;99.90
1568;DHT22;777;47.156;8.326;2023-04-06T06:34:02;4.80;99.90
1568;DHT22;777;47.156;8.326;2023-04-06T06:36:31;5.60;99.90
1568;DHT22;777;47.156;8.326;2023-04-06T06:38:58;6.40;99.90
1568;DHT22;777;47.156;8.326;2023-04-06T06:41:26;7.10;99.90
1568;DHT22;777;47.156;8.326;2023-04-06T06:43:53;7.70;99.90
1568;DHT22;777;47.156;8.326;2023-04-06T06:46:21;8.10;99.90
1568;DHT22;777;47.156;8.326;2023-04-06T06:48:48;8.60;99.90
1568;DHT22;777;47.156;8.326;2023-04-06T06:51:16;9.20;99.90
1568;DHT22;777;47.156;8.326;2023-04-06T06:53:43;9.30;99.90
1568;DHT22;777;47.156;8.326;2023-04-06T06:56:11;9.40;99.90
1568;DHT22;777;47.156;8.326;2023-04-06T06:58:39;9.30;99.90
1568;DHT22;777;47.156;8.326;2023-04-06T07:01:06;10.00;99.90
1568;DHT22;777;47.156;8.326;2023-04-06T07:03:34;10.50;99.90
1568;DHT22;777;47.156;8.326;2023-04-06T07:06:01;10.70;99.90
1568;DHT22;777;47.156;8.326;2023-04-06T07:08:30;11.20;99.90
1568;DHT22;777;47.156;8.326;2023-04-06T07:10:57;11.60;99.90
1568;DHT22;777;47.156;8.326;2023-04-06T07:13:24;11.30;99.90
1568;DHT22;777;47.156;8.326;2023-04-06T07:15:55;12.00;99.90
1568;DHT22;777;47.156;8.326;2023-04-06T07:18:23;11.90;99.90
1568;DHT22;777;47.156;8.326;2023-04-06T07:20:50;12.00;99.90
1568;DHT22;777;47.156;8.326;2023-04-06T07:23:18;11.60;99.90
1568;DHT22;777;47.156;8.326;2023-04-06T07:25:46;11.90;99.90
1568;DHT22;777;47.156;8.326;2023-04-06T07:28:13;12.70;99.90
1568;DHT22;777;47.156;8.326;2023-04-06T07:30:41;13.20;99.90
1568;DHT22;777;47.156;8.326;2023-04-06T07:33:10;13.30;99.90
1568;DHT22;777;47.156;8.326;2023-04-06T07:35:37;13.80;99.90
1568;DHT22;777;47.156;8.326;2023-04-06T07:38:06;13.50;99.60
1568;DHT22;777;47.156;8.326;2023-04-06T07:40:34;13.10;98.70
1568;DHT22;777;47.156;8.326;2023-04-06T07:43:03;12.80;98.90
1568;DHT22;777;47.156;8.326;2023-04-06T07:45:31;12.20;99.90
1568;DHT22;777;47.156;8.326;2023-04-06T07:47:59;11.90;99.90
1568;DHT22;777;47.156;8.326;2023-04-06T07:50:30;11.20;99.90
1568;DHT22;777;47.156;8.326;2023-04-06T07:52:58;10.90;99.90
1568;DHT22;777;47.156;8.326;2023-04-06T07:55:26;10.70;99.90
1568;DHT22;777;47.156;8.326;2023-04-06T07:57:53;10.50;99.90
1568;DHT22;777;47.156;8.326;2023-04-06T08:00:22;10.20;99.90
1568;DHT22;777;47.156;8.326;2023-04-06T08:02:49;10.20;99.90
1568;DHT22;777;47.156;8.326;2023-04-06T08:05:16;10.20;99.90
1568;DHT22;777;47.156;8.326;2023-04-06T08:07:45;10.10;99.90
1568;DHT22;777;47.156;8.326;2023-04-06T08:10:12;10.10;99.90
1568;DHT22;777;47.156;8.326;2023-04-06T08:12:39;9.90;99.90
1568;DHT22;777;47.156;8.326;2023-04-06T08:15:06;10.20;99.90
1568;DHT22;777;47.156;8.326;2023-04-06T08:17:35;10.60;99.20
1568;DHT22;777;47.156;8.326;2023-04-06T08:20:02;10.90;98.60
1568;DHT22;777;47.156;8.326;2023-04-06T08:22:30;11.40;98.30
1568;DHT22;777;47.156;8.326;2023-04-06T08:24:57;11.70;98.50
1568;DHT22;777;47.156;8.326;2023-04-06T08:27:24;11.90;97.30
1568;DHT22;777;47.156;8.326;2023-04-06T08:29:51;12.30;96.70
1568;DHT22;777;47.156;8.326;2023-04-06T08:32:18;12.50;96.20
1568;DHT22;777;47.156;8.326;2023-04-06T08:34:47;12.80;97.60
1568;DHT22;777;47.156;8.326;2023-04-06T08:37:14;12.60;95.50
1568;DHT22;777;47.156;8.326;2023-04-06T08:39:41;12.10;94.30
1568;DHT22;777;47.156;8.326;2023-04-06T08:42:12;12.70;95.90
1568;DHT22;777;47.156;8.326;2023-04-06T08:44:43;12.20;94.60
1568;DHT22;777;47.156;8.326;2023-04-06T08:47:12;12.20;94.50
1568;DHT22;777;47.156;8.326;2023-04-06T08:49:39;12.70;94.00
1568;DHT22;777;47.156;8.326;2023-04-06T08:52:08;13.30;93.20
1568;DHT22;777;47.156;8.326;2023-04-06T08:54:37;13.70;92.80
1568;DHT22;777;47.156;8.326;2023-04-06T08:57:04;13.90;90.80
1568;DHT22;777;47.156;8.326;2023-04-06T08:59:33;14.10;90.90
1568;DHT22;777;47.156;8.326;2023-04-06T09:02:03;14.90;90.20
1568;DHT22;777;47.156;8.326;2023-04-06T09:04:32;14.90;89.70
1568;DHT22;777;47.156;8.326;2023-04-06T09:06:59;14.50;87.70
1568;DHT22;777;47.156;8.326;2023-04-06T09:09:28;14.60;89.20
1568;DHT22;777;47.156;8.326;2023-04-06T09:11:55;15.40;87.10
1568;DHT22;777;47.156;8.326;2023-04-06T09:14:34;16.20;86.50
1568;DHT22;777;47.156;8.326;2023-04-06T09:17:02;16.80;82.40
1568;DHT22;777;47.156;8.326;2023-04-06T09:19:29;17.00;79.60
1568;DHT22;777;47.156;8.326;2023-04-06T09:22:02;16.30;80.40
1568;DHT22;777;47.156;8.326;2023-04-06T09:24:41;16.30;80.30
1568;DHT22;777;47.156;8.326;2023-04-06T09:27:08;16.70;79.40
1568;DHT22;777;47.156;8.326;2023-04-06T09:29:35;16.70;79.00
1568;DHT22;777;47.156;8.326;2023-04-06T09:32:04;17.70;78.60
1568;DHT22;777;47.156;8.326;2023-04-06T09:34:31;17.50;77.10
1568;DHT22;777;47.156;8.326;2023-04-06T09:36:59;17.80;74.60
1568;DHT22;777;47.156;8.326;2023-04-06T09:39:27;16.70;73.50
1568;DHT22;777;47.156;8.326;2023-04-06T09:41:56;16.40;72.90
1568;DHT22;777;47.156;8.326;2023-04-06T09:44:23;16.10;74.10
1568;DHT22;777;47.156;8.326;2023-04-06T09:46:53;17.50;73.30
1568;DHT22;777;47.156;8.326;2023-04-06T09:49:23;18.90;68.60
1568;DHT22;777;47.156;8.326;2023-04-06T09:51:55;19.90;69.60
1568;DHT22;777;47.156;8.326;2023-04-06T09:54:26;20.30;66.60
1568;DHT22;777;47.156;8.326;2023-04-06T09:56:58;19.20;66.80
1568;DHT22;777;47.156;8.326;2023-04-06T09:59:31;19.00;66.40
1568;DHT22;777;47.156;8.326;2023-04-06T10:02:05;19.60;66.00
1568;DHT22;777;47.156;8.326;2023-04-06T10:04:39;19.10;67.00
1568;DHT22;777;47.156;8.326;2023-04-06T10:07:08;19.80;65.90
1568;DHT22;777;47.156;8.326;2023-04-06T10:09:37;19.00;63.50
1568;DHT22;777;47.156;8.326;2023-04-06T10:12:07;19.00;64.50
1568;DHT22;777;47.156;8.326;2023-04-06T10:14:35;19.20;64.30
1568;DHT22;777;47.156;8.326;2023-04-06T10:17:03;18.90;64.00
1568;DHT22;777;47.156;8.326;2023-04-06T10:19:39;18.10;64.10
1568;DHT22;777;47.156;8.326;2023-04-06T10:22:10;18.60;64.10
1568;DHT22;777;47.156;8.326;2023-04-06T10:24:39;18.90;64.90
1568;DHT22;777;47.156;8.326;2023-04-06T10:27:07;20.00;62.90
1568;DHT22;777;47.156;8.326;2023-04-06T10:29:44;20.20;61.70
1568;DHT22;777;47.156;8.326;2023-04-06T10:32:12;20.60;61.60
1568;DHT22;777;47.156;8.326;2023-04-06T10:34:39;21.00;63.20
1568;DHT22;777;47.156;8.326;2023-04-06T10:37:13;20.90;58.90
1568;DHT22;777;47.156;8.326;2023-04-06T10:39:47;20.40;58.30
1568;DHT22;777;47.156;8.326;2023-04-06T10:42:16;18.00;58.30
1568;DHT22;777;47.156;8.326;2023-04-06T10:44:43;17.70;60.70
1568;DHT22;777;47.156;8.326;2023-04-06T10:47:16;18.10;62.20
1568;DHT22;777;47.156;8.326;2023-04-06T10:49:44;18.60;59.40
1568;DHT22;777;47.156;8.326;2023-04-06T10:52:11;18.60;58.20
1568;DHT22;777;47.156;8.326;2023-04-06T10:54:42;17.90;58.00
1568;DHT22;777;47.156;8.326;2023-04-06T10:57:10;17.50;59.10
1568;DHT22;777;47.156;8.326;2023-04-06T10:59:42;18.00;58.40
1568;DHT22;777;47.156;8.326;2023-04-06T11:02:19;18.90;59.70
1568;DHT22;777;47.156;8.326;2023-04-06T11:04:54;19.40;60.30
1568;DHT22;777;47.156;8.326;2023-04-06T11:07:25;19.80;59.60
1568;DHT22;777;47.156;8.326;2023-04-06T11:09:54;20.00;57.90
1568;DHT22;777;47.156;8.326;2023-04-06T11:12:23;19.90;57.20
1568;DHT22;777;47.156;8.326;2023-04-06T11:14:56;20.20;58.70
1568;DHT22;777;47.156;8.326;2023-04-06T11:17:28;20.10;59.00
1568;DHT22;777;47.156;8.326;2023-04-06T11:19:56;20.20;58.00
1568;DHT22;777;47.156;8.326;2023-04-06T11:22:23;20.00;56.50
1568;DHT22;777;47.156;8.326;2023-04-06T11:24:51;20.30;58.40
1568;DHT22;777;47.156;8.326;2023-04-06T11:27:18;20.70;58.90
1568;DHT22;777;47.156;8.326;2023-04-06T11:29:46;20.90;57.30
1568;DHT22;777;47.156;8.326;2023-04-06T11:32:25;21.10;55.70
1568;DHT22;777;47.156;8.326;2023-04-06T11:34:53;20.90;54.30
1568;DHT22;777;47.156;8.326;2023-04-06T11:37:20;20.30;56.30
1568;DHT22;777;47.156;8.326;2023-04-06T11:39:49;20.40;55.90
1568;DHT22;777;47.156;8.326;2023-04-06T11:42:22;20.70;57.50
1568;DHT22;777;47.156;8.326;2023-04-06T11:44:51;20.90;57.80
1568;DHT22;777;47.156;8.326;2023-04-06T11:47:19;21.30;56.30
1568;DHT22;777;47.156;8.326;2023-04-06T11:49:49;21.20;54.90
1568;DHT22;777;47.156;8.326;2023-04-06T11:52:17;21.20;57.00
1568;DHT22;777;47.156;8.326;2023-04-06T11:54:45;21.80;56.60
1568;DHT22;777;47.156;8.326;2023-04-06T11:57:12;22.30;55.30
1568;DHT22;777;47.156;8.326;2023-04-06T11:59:40;23.10;55.30
1568;DHT22;777;47.156;8.326;2023-04-06T12:02:07;23.30;55.00
1568;DHT22;777;47.156;8.326;2023-04-06T12:04:34;23.40;54.10
1568;DHT22;777;47.156;8.326;2023-04-06T12:07:03;22.80;53.50
1568;DHT22;777;47.156;8.326;2023-04-06T12:09:31;22.50;53.20
1568;DHT22;777;47.156;8.326;2023-04-06T12:12:00;22.10;53.80
1568;DHT22;777;47.156;8.326;2023-04-06T12:14:27;21.80;53.70
1568;DHT22;777;47.156;8.326;2023-04-06T12:16:56;21.40;54.30
1568;DHT22;777;47.156;8.326;2023-04-06T12:19:23;21.00;53.40
1568;DHT22;777;47.156;8.326;2023-04-06T12:21:52;20.40;53.20
1568;DHT22;777;47.156;8.326;2023-04-06T12:24:21;20.80;54.30
1568;DHT22;777;47.156;8.326;2023-04-06T12:26:48;21.90;53.80
1568;DHT22;777;47.156;8.326;2023-04-06T12:29:15;22.40;52.70
1568;DHT22;777;47.156;8.326;2023-04-06T12:31:43;22.90;52.20
1568;DHT22;777;47.156;8.326;2023-04-06T12:34:10;23.10;52.50
1568;DHT22;777;47.156;8.326;2023-04-06T12:36:38;22.90;52.70
1568;DHT22;777;47.156;8.326;2023-04-06T12:39:05;22.00;51.70
1568;DHT22;777;47.156;8.326;2023-04-06T12:41:34;21.00;50.40
1568;DHT22;777;47.156;8.326;2023-04-06T12:44:01;20.50;50.00
1568;DHT22;777;47.156;8.326;2023-04-06T12:46:29;20.40;52.20
1568;DHT22;777;47.156;8.326;2023-04-06T12:48:57;21.00;52.40
1568;DHT22;777;47.156;8.326;2023-04-06T12:51:26;21.10;51.30
1568;DHT22;777;47.156;8.326;2023-04-06T12:53:54;21.20;50.70
1568;DHT22;777;47.156;8.326;2023-04-06T12:56:21;21.50;51.40
1568;DHT22;777;47.156;8.326;2023-04-06T12:58:51;21.40;49.70
1568;DHT22;777;47.156;8.326;2023-04-06T13:01:18;21.50;49.30
1568;DHT22;777;47.156;8.326;2023-04-06T13:03:45;20.90;49.60
1568;DHT22;777;47.156;8.326;2023-04-06T13:06:13;20.10;50.40
1568;DHT22;777;47.156;8.326;2023-04-06T13:08:41;19.70;51.60
1568;DHT22;777;47.156;8.326;2023-04-06T13:11:08;19.10;49.20
1568;DHT22;777;47.156;8.326;2023-04-06T13:13:36;19.10;49.40
1568;DHT22;777;47.156;8.326;2023-04-06T13:16:07;19.00;50.90
1568;DHT22;777;47.156;8.326;2023-04-06T13:18:35;19.80;51.60
1568;DHT22;777;47.156;8.326;2023-04-06T13:21:04;20.60;50.60
1568;DHT22;777;47.156;8.326;2023-04-06T13:23:32;21.50;50.20
1568;DHT22;777;47.156;8.326;2023-04-06T13:25:59;22.40;50.70
1568;DHT22;777;47.156;8.326;2023-04-06T13:28:27;22.50;49.80
1568;DHT22;777;47.156;8.326;2023-04-06T13:30:55;22.70;48.40
1568;DHT22;777;47.156;8.326;2023-04-06T13:33:23;22.30;48.70
1568;DHT22;777;47.156;8.326;2023-04-06T13:35:51;22.40;49.80
1568;DHT22;777;47.156;8.326;2023-04-06T13:38:18;22.40;50.60
1568;DHT22;777;47.156;8.326;2023-04-06T13:40:45;22.30;49.80
1568;DHT22;777;47.156;8.326;2023-04-06T13:43:12;22.20;50.10
1568;DHT22;777;47.156;8.326;2023-04-06T13:45:39;22.20;50.90
1568;DHT22;777;47.156;8.326;2023-04-06T13:48:06;21.70;49.60
1568;DHT22;777;47.156;8.326;2023-04-06T13:50:35;21.50;50.90
1568;DHT22;777;47.156;8.326;2023-04-06T13:53:02;21.80;49.90
1568;DHT22;777;47.156;8.326;2023-04-06T13:55:29;21.50;50.00
1568;DHT22;777;47.156;8.326;2023-04-06T13:57:57;21.00;50.70
1568;DHT22;777;47.156;8.326;2023-04-06T14:00:24;20.30;50.50
1568;DHT22;777;47.156;8.326;2023-04-06T14:02:53;20.20;50.70
1568;DHT22;777;47.156;8.326;2023-04-06T14:05:21;19.90;51.30
1568;DHT22;777;47.156;8.326;2023-04-06T14:07:50;20.00;52.10
1568;DHT22;777;47.156;8.326;2023-04-06T14:10:17;19.80;52.20
1568;DHT22;777;47.156;8.326;2023-04-06T14:12:46;19.60;53.70
1568;DHT22;777;47.156;8.326;2023-04-06T14:15:13;19.30;53.50
1568;DHT22;777;47.156;8.326;2023-04-06T14:17:41;18.80;53.50
1568;DHT22;777;47.156;8.326;2023-04-06T14:20:08;18.20;54.70
1568;DHT22;777;47.156;8.326;2023-04-06T14:22:40;17.70;53.00
1568;DHT22;777;47.156;8.326;2023-04-06T14:25:09;17.40;53.90
1568;DHT22;777;47.156;8.326;2023-04-06T14:27:38;17.20;54.60
1568;DHT22;777;47.156;8.326;2023-04-06T14:30:06;17.10;54.40
1568;DHT22;777;47.156;8.326;2023-04-06T14:32:34;16.90;53.80
1568;DHT22;777;47.156;8.326;2023-04-06T14:35:02;16.70;55.30
1568;DHT22;777;47.156;8.326;2023-04-06T14:37:29;16.70;54.80
1568;DHT22;777;47.156;8.326;2023-04-06T14:39:56;16.70;56.30
1568;DHT22;777;47.156;8.326;2023-04-06T14:42:24;16.40;57.00
1568;DHT22;777;47.156;8.326;2023-04-06T14:44:52;16.00;55.60
1568;DHT22;777;47.156;8.326;2023-04-06T14:47:19;15.60;53.90
1568;DHT22;777;47.156;8.326;2023-04-06T14:49:47;15.50;55.90
1568;DHT22;777;47.156;8.326;2023-04-06T14:52:14;15.30;56.70
1568;DHT22;777;47.156;8.326;2023-04-06T14:54:41;15.20;56.50
1568;DHT22;777;47.156;8.326;2023-04-06T14:57:08;15.00;55.60
1568;DHT22;777;47.156;8.326;2023-04-06T14:59:37;14.80;56.20
1568;DHT22;777;47.156;8.326;2023-04-06T15:02:04;14.60;57.60
1568;DHT22;777;47.156;8.326;2023-04-06T15:04:35;14.60;59.20
1568;DHT22;777;47.156;8.326;2023-04-06T15:07:02;14.50;59.00
1568;DHT22;777;47.156;8.326;2023-04-06T15:09:29;14.40;59.80
1568;DHT22;777;47.156;8.326;2023-04-06T15:11:56;14.40;60.30
1568;DHT22;777;47.156;8.326;2023-04-06T15:14:23;14.30;61.70
1568;DHT22;777;47.156;8.326;2023-04-06T15:16:53;14.20;63.40
1568;DHT22;777;47.156;8.326;2023-04-06T15:19:21;14.20;61.10
1568;DHT22;777;47.156;8.326;2023-04-06T15:21:48;14.20;61.60
1568;DHT22;777;47.156;8.326;2023-04-06T15:24:15;14.00;62.30
1568;DHT22;777;47.156;8.326;2023-04-06T15:26:42;13.90;64.00
1568;DHT22;777;47.156;8.326;2023-04-06T15:29:11;13.80;64.40
1568;DHT22;777;47.156;8.326;2023-04-06T15:31:38;13.70;65.80
1568;DHT22;777;47.156;8.326;2023-04-06T15:34:07;13.60;63.40
1568;DHT22;777;47.156;8.326;2023-04-06T15:36:34;13.60;64.00
1568;DHT22;777;47.156;8.326;2023-04-06T15:39:02;13.70;66.40
1568;DHT22;777;47.156;8.326;2023-04-06T15:41:32;13.60;66.60
1568;DHT22;777;47.156;8.326;2023-04-06T15:43:59;13.60;64.40
1568;DHT22;777;47.156;8.326;2023-04-06T15:46:26;13.50;64.30
1568;DHT22;777;47.156;8.326;2023-04-06T15:48:53;13.40;66.00
1568;DHT22;777;47.156;8.326;2023-04-06T15:51:21;13.50;67.00
1568;DHT22;777;47.156;8.326;2023-04-06T15:53:48;13.50;66.70
1568;DHT22;777;47.156;8.326;2023-04-06T15:56:15;13.50;66.40
1568;DHT22;777;47.156;8.326;2023-04-06T15:58:42;13.30;67.50
1568;DHT22;777;47.156;8.326;2023-04-06T16:01:13;13.20;67.00
1568;DHT22;777;47.156;8.326;2023-04-06T16:03:40;13.20;66.70
1568;DHT22;777;47.156;8.326;2023-04-06T16:06:07;13.10;67.80
1568;DHT22;777;47.156;8.326;2023-04-06T16:08:37;13.10;68.20
1568;DHT22;777;47.156;8.326;2023-04-06T16:11:04;12.90;68.20
1568;DHT22;777;47.156;8.326;2023-04-06T16:13:32;13.00;69.00
1568;DHT22;777;47.156;8.326;2023-04-06T16:15:59;12.90;68.50
1568;DHT22;777;47.156;8.326;2023-04-06T16:18:26;12.80;68.80
1568;DHT22;777;47.156;8.326;2023-04-06T16:20:53;12.50;71.70
1568;DHT22;777;47.156;8.326;2023-04-06T16:23:20;12.50;68.80
1568;DHT22;777;47.156;8.326;2023-04-06T16:25:49;12.50;67.80
1568;DHT22;777;47.156;8.326;2023-04-06T16:28:16;12.60;67.90
1568;DHT22;777;47.156;8.326;2023-04-06T16:30:43;12.60;67.60
1568;DHT22;777;47.156;8.326;2023-04-06T16:33:11;12.60;68.30